sensor_id;sensor_type;location;lat;lon;timestamp;P1;durP1;ratioP1;P2;durP2;ratioP2
74626;SDS011;63132;52.268;5.192;2022-10-16T00:02:21;10.50;;;2.00;;
74626;SDS011;63132;52.268;5.192;2022-10-16T00:04:47;8.37;;;2.03;;
74626;SDS011;63132;52.268;5.192;2022-10-16T00:07:12;8.30;;;1.80;;
74626;SDS011;63132;52.268;5.192;2022-10-16T00:09:37;5.20;;;1.90;;
74626;SDS011;63132;52.268;5.192;2022-10-16T00:12:03;7.27;;;2.10;;
74626;SDS011;63132;52.268;5.192;2022-10-16T00:14:29;6.43;;;2.03;;
74626;SDS011;63132;52.268;5.192;2022-10-16T00:16:55;9.47;;;1.93;;
74626;SDS011;63132;52.268;5.192;2022-10-16T00:19:20;6.43;;;2.03;;
74626;SDS011;63132;52.268;5.192;2022-10-16T00:21:45;8.30;;;2.08;;
74626;SDS011;63132;52.268;5.192;2022-10-16T00:24:11;8.03;;;2.00;;
74626;SDS011;63132;52.268;5.192;2022-10-16T00:26:37;8.97;;;2.37;;
74626;SDS011;63132;52.268;5.192;2022-10-16T00:29:03;6.53;;;2.03;;
74626;SDS011;63132;52.268;5.192;2022-10-16T00:31:30;7.70;;;2.10;;
74626;SDS011;63132;52.268;5.192;2022-10-16T00:33:55;6.60;;;1.90;;
74626;SDS011;63132;52.268;5.192;2022-10-16T00:36:22;5.03;;;1.90;;
74626;SDS011;63132;52.268;5.192;2022-10-16T00:38:50;6.82;;;1.80;;
74626;SDS011;63132;52.268;5.192;2022-10-16T00:41:18;4.60;;;1.75;;
74626;SDS011;63132;52.268;5.192;2022-10-16T00:43:45;7.50;;;2.25;;
74626;SDS011;63132;52.268;5.192;2022-10-16T00:49:14;5.75;;;1.77;;
74626;SDS011;63132;52.268;5.192;2022-10-16T00:51:43;5.75;;;1.67;;
74626;SDS011;63132;52.268;5.192;2022-10-16T00:54:13;8.00;;;1.85;;
74626;SDS011;63132;52.268;5.192;2022-10-16T00:56:42;5.05;;;1.80;;
74626;SDS011;63132;52.268;5.192;2022-10-16T00:59:18;4.57;;;1.75;;
74626;SDS011;63132;52.268;5.192;2022-10-16T01:01:47;6.35;;;1.98;;
74626;SDS011;63132;52.268;5.192;2022-10-16T01:04:13;5.47;;;1.80;;
74626;SDS011;63132;52.268;5.192;2022-10-16T01:12:22;5.40;;;1.93;;
74626;SDS011;63132;52.268;5.192;2022-10-16T01:18:05;7.50;;;1.85;;
74626;SDS011;63132;52.268;5.192;2022-10-16T01:20:51;5.23;;;1.70;;
74626;SDS011;63132;52.268;5.192;2022-10-16T01:23:57;6.22;;;1.70;;
74626;SDS011;63132;52.268;5.192;2022-10-16T01:26:44;5.93;;;1.48;;
74626;SDS011;63132;52.268;5.192;2022-10-16T01:29:35;5.93;;;1.52;;
74626;SDS011;63132;52.268;5.192;2022-10-16T01:32:36;5.70;;;1.70;;
74626;SDS011;63132;52.268;5.192;2022-10-16T01:35:14;8.05;;;2.00;;
74626;SDS011;63132;52.268;5.192;2022-10-16T01:40:24;7.68;;;1.80;;
74626;SDS011;63132;52.268;5.192;2022-10-16T01:42:53;5.17;;;1.63;;
74626;SDS011;63132;52.268;5.192;2022-10-16T01:45:24;7.57;;;2.30;;
74626;SDS011;63132;52.268;5.192;2022-10-16T01:47:49;9.80;;;2.60;;
74626;SDS011;63132;52.268;5.192;2022-10-16T01:50:18;6.47;;;2.10;;
74626;SDS011;63132;52.268;5.192;2022-10-16T01:52:46;5.97;;;2.38;;
74626;SDS011;63132;52.268;5.192;2022-10-16T01:55:17;4.93;;;2.15;;
74626;SDS011;63132;52.268;5.192;2022-10-16T01:57:47;7.03;;;2.20;;
74626;SDS011;63132;52.268;5.192;2022-10-16T02:00:14;5.60;;;2.00;;
74626;SDS011;63132;52.268;5.192;2022-10-16T02:02:43;7.30;;;2.40;;
74626;SDS011;63132;52.268;5.192;2022-10-16T02:05:14;5.85;;;2.28;;
74626;SDS011;63132;52.268;5.192;2022-10-16T02:07:47;8.98;;;2.70;;
74626;SDS011;63132;52.268;5.192;2022-10-16T02:10:14;6.88;;;1.92;;
74626;SDS011;63132;52.268;5.192;2022-10-16T02:12:40;5.07;;;2.10;;
74626;SDS011;63132;52.268;5.192;2022-10-16T02:15:10;5.20;;;2.10;;
74626;SDS011;63132;52.268;5.192;2022-10-16T02:17:36;6.17;;;1.97;;
74626;SDS011;63132;52.268;5.192;2022-10-16T02:20:02;6.03;;;2.40;;
74626;SDS011;63132;52.268;5.192;2022-10-16T02:22:36;5.47;;;2.13;;
74626;SDS011;63132;52.268;5.192;2022-10-16T02:32:50;6.57;;;2.70;;
74626;SDS011;63132;52.268;5.192;2022-10-16T02:35:18;4.10;;;2.28;;
74626;SDS011;63132;52.268;5.192;2022-10-16T02:37:46;5.90;;;2.70;;
74626;SDS011;63132;52.268;5.192;2022-10-16T02:40:13;6.55;;;2.70;;
74626;SDS011;63132;52.268;5.192;2022-10-16T02:42:40;7.23;;;3.10;;
74626;SDS011;63132;52.268;5.192;2022-10-16T02:45:07;6.90;;;2.78;;
74626;SDS011;63132;52.268;5.192;2022-10-16T02:47:34;8.30;;;2.78;;
74626;SDS011;63132;52.268;5.192;2022-10-16T02:49:59;8.40;;;3.20;;
74626;SDS011;63132;52.268;5.192;2022-10-16T02:52:25;8.67;;;3.37;;
74626;SDS011;63132;52.268;5.192;2022-10-16T02:54:50;6.30;;;2.80;;
74626;SDS011;63132;52.268;5.192;2022-10-16T02:57:17;7.80;;;2.85;;
74626;SDS011;63132;52.268;5.192;2022-10-16T02:59:43;6.85;;;3.03;;
74626;SDS011;63132;52.268;5.192;2022-10-16T03:02:08;7.68;;;3.15;;
74626;SDS011;63132;52.268;5.192;2022-10-16T03:04:34;7.33;;;3.07;;
74626;SDS011;63132;52.268;5.192;2022-10-16T03:06:59;6.40;;;2.70;;
74626;SDS011;63132;52.268;5.192;2022-10-16T03:09:25;6.63;;;3.00;;
74626;SDS011;63132;52.268;5.192;2022-10-16T03:11:50;7.55;;;2.80;;
74626;SDS011;63132;52.268;5.192;2022-10-16T03:14:17;7.00;;;2.60;;
74626;SDS011;63132;52.268;5.192;2022-10-16T03:16:42;6.33;;;2.80;;
74626;SDS011;63132;52.268;5.192;2022-10-16T03:19:07;6.97;;;3.00;;
74626;SDS011;63132;52.268;5.192;2022-10-16T03:21:33;10.73;;;3.00;;
74626;SDS011;63132;52.268;5.192;2022-10-16T03:23:58;7.03;;;3.03;;
74626;SDS011;63132;52.268;5.192;2022-10-16T03:26:24;7.15;;;3.10;;
74626;SDS011;63132;52.268;5.192;2022-10-16T03:28:49;6.60;;;2.60;;
74626;SDS011;63132;52.268;5.192;2022-10-16T03:31:14;9.37;;;2.90;;
74626;SDS011;63132;52.268;5.192;2022-10-16T03:33:40;10.10;;;3.20;;
74626;SDS011;63132;52.268;5.192;2022-10-16T03:36:06;7.50;;;2.80;;
74626;SDS011;63132;52.268;5.192;2022-10-16T03:38:31;5.93;;;2.33;;
74626;SDS011;63132;52.268;5.192;2022-10-16T03:40:57;7.90;;;2.47;;
74626;SDS011;63132;52.268;5.192;2022-10-16T03:43:22;5.95;;;2.50;;
74626;SDS011;63132;52.268;5.192;2022-10-16T03:45:49;6.40;;;2.80;;
74626;SDS011;63132;52.268;5.192;2022-10-16T03:48:15;5.68;;;2.58;;
74626;SDS011;63132;52.268;5.192;2022-10-16T03:50:41;7.57;;;2.50;;
74626;SDS011;63132;52.268;5.192;2022-10-16T03:53:06;6.87;;;2.70;;
74626;SDS011;63132;52.268;5.192;2022-10-16T03:55:31;6.57;;;2.70;;
74626;SDS011;63132;52.268;5.192;2022-10-16T03:57:57;4.53;;;2.57;;
74626;SDS011;63132;52.268;5.192;2022-10-16T04:00:22;6.67;;;2.50;;
74626;SDS011;63132;52.268;5.192;2022-10-16T04:02:47;8.07;;;2.80;;
74626;SDS011;63132;52.268;5.192;2022-10-16T04:05:13;7.33;;;2.63;;
74626;SDS011;63132;52.268;5.192;2022-10-16T04:07:38;6.93;;;2.85;;
74626;SDS011;63132;52.268;5.192;2022-10-16T04:10:04;6.60;;;2.50;;
74626;SDS011;63132;52.268;5.192;2022-10-16T04:12:29;6.57;;;2.67;;
74626;SDS011;63132;52.268;5.192;2022-10-16T04:14:55;5.40;;;2.40;;
74626;SDS011;63132;52.268;5.192;2022-10-16T04:17:20;8.85;;;2.45;;
74626;SDS011;63132;52.268;5.192;2022-10-16T04:19:46;4.93;;;2.30;;
74626;SDS011;63132;52.268;5.192;2022-10-16T04:22:11;8.03;;;2.87;;
74626;SDS011;63132;52.268;5.192;2022-10-16T04:24:36;5.60;;;2.20;;
74626;SDS011;63132;52.268;5.192;2022-10-16T04:27:02;5.23;;;2.47;;
74626;SDS011;63132;52.268;5.192;2022-10-16T04:29:28;5.38;;;2.22;;
74626;SDS011;63132;52.268;5.192;2022-10-16T04:31:53;9.03;;;2.57;;
74626;SDS011;63132;52.268;5.192;2022-10-16T04:34:19;5.73;;;2.30;;
74626;SDS011;63132;52.268;5.192;2022-10-16T04:36:46;5.25;;;2.40;;
74626;SDS011;63132;52.268;5.192;2022-10-16T04:39:14;8.33;;;2.37;;
74626;SDS011;63132;52.268;5.192;2022-10-16T04:41:40;6.57;;;2.28;;
74626;SDS011;63132;52.268;5.192;2022-10-16T04:44:05;8.37;;;2.63;;
74626;SDS011;63132;52.268;5.192;2022-10-16T04:46:30;7.23;;;2.30;;
74626;SDS011;63132;52.268;5.192;2022-10-16T04:48:56;6.50;;;2.10;;
74626;SDS011;63132;52.268;5.192;2022-10-16T04:51:21;5.13;;;2.30;;
74626;SDS011;63132;52.268;5.192;2022-10-16T04:53:46;5.35;;;2.40;;
74626;SDS011;63132;52.268;5.192;2022-10-16T04:56:12;7.37;;;2.30;;
74626;SDS011;63132;52.268;5.192;2022-10-16T04:58:38;5.23;;;2.30;;
74626;SDS011;63132;52.268;5.192;2022-10-16T05:01:03;8.23;;;2.50;;
74626;SDS011;63132;52.268;5.192;2022-10-16T05:03:29;6.15;;;2.17;;
74626;SDS011;63132;52.268;5.192;2022-10-16T05:05:54;5.30;;;2.30;;
74626;SDS011;63132;52.268;5.192;2022-10-16T05:08:20;7.13;;;2.20;;
74626;SDS011;63132;52.268;5.192;2022-10-16T05:10:45;5.57;;;2.60;;
74626;SDS011;63132;52.268;5.192;2022-10-16T05:13:11;6.55;;;2.55;;
74626;SDS011;63132;52.268;5.192;2022-10-16T05:15:36;6.30;;;2.67;;
74626;SDS011;63132;52.268;5.192;2022-10-16T05:18:02;5.78;;;2.40;;
74626;SDS011;63132;52.268;5.192;2022-10-16T05:20:28;5.70;;;2.38;;
74626;SDS011;63132;52.268;5.192;2022-10-16T05:22:53;7.47;;;2.60;;
74626;SDS011;63132;52.268;5.192;2022-10-16T05:25:19;7.20;;;2.43;;
74626;SDS011;63132;52.268;5.192;2022-10-16T05:27:47;6.13;;;2.50;;
74626;SDS011;63132;52.268;5.192;2022-10-16T05:30:14;6.70;;;2.38;;
74626;SDS011;63132;52.268;5.192;2022-10-16T05:32:40;8.55;;;2.50;;
74626;SDS011;63132;52.268;5.192;2022-10-16T05:35:05;5.93;;;2.50;;
74626;SDS011;63132;52.268;5.192;2022-10-16T05:37:31;5.00;;;2.43;;
74626;SDS011;63132;52.268;5.192;2022-10-16T05:39:58;5.03;;;2.38;;
74626;SDS011;63132;52.268;5.192;2022-10-16T05:42:23;5.50;;;2.20;;
74626;SDS011;63132;52.268;5.192;2022-10-16T05:44:49;10.60;;;2.70;;
74626;SDS011;63132;52.268;5.192;2022-10-16T05:47:14;10.63;;;2.50;;
74626;SDS011;63132;52.268;5.192;2022-10-16T05:49:40;6.10;;;2.50;;
74626;SDS011;63132;52.268;5.192;2022-10-16T05:52:05;7.00;;;2.60;;
74626;SDS011;63132;52.268;5.192;2022-10-16T05:54:31;7.63;;;2.50;;
74626;SDS011;63132;52.268;5.192;2022-10-16T05:56:56;9.07;;;2.70;;
74626;SDS011;63132;52.268;5.192;2022-10-16T05:59:22;6.90;;;2.70;;
74626;SDS011;63132;52.268;5.192;2022-10-16T06:01:47;6.30;;;2.47;;
74626;SDS011;63132;52.268;5.192;2022-10-16T06:04:12;9.25;;;2.53;;
74626;SDS011;63132;52.268;5.192;2022-10-16T06:06:38;5.60;;;2.30;;
74626;SDS011;63132;52.268;5.192;2022-10-16T06:09:04;7.13;;;2.60;;
74626;SDS011;63132;52.268;5.192;2022-10-16T06:11:30;6.47;;;2.65;;
74626;SDS011;63132;52.268;5.192;2022-10-16T06:13:58;7.60;;;2.70;;
74626;SDS011;63132;52.268;5.192;2022-10-16T06:16:26;9.52;;;3.17;;
74626;SDS011;63132;52.268;5.192;2022-10-16T06:18:53;9.27;;;3.47;;
74626;SDS011;63132;52.268;5.192;2022-10-16T06:21:22;7.28;;;3.30;;
74626;SDS011;63132;52.268;5.192;2022-10-16T06:23:52;7.10;;;3.30;;
74626;SDS011;63132;52.268;5.192;2022-10-16T06:26:19;8.43;;;3.40;;
74626;SDS011;63132;52.268;5.192;2022-10-16T06:28:46;9.07;;;3.40;;
74626;SDS011;63132;52.268;5.192;2022-10-16T06:31:12;8.68;;;3.67;;
74626;SDS011;63132;52.268;5.192;2022-10-16T06:33:38;9.07;;;3.80;;
74626;SDS011;63132;52.268;5.192;2022-10-16T06:36:09;10.63;;;3.63;;
74626;SDS011;63132;52.268;5.192;2022-10-16T06:38:36;9.23;;;3.72;;
74626;SDS011;63132;52.268;5.192;2022-10-16T06:41:02;7.72;;;3.65;;
74626;SDS011;63132;52.268;5.192;2022-10-16T06:43:28;9.43;;;3.47;;
74626;SDS011;63132;52.268;5.192;2022-10-16T06:45:57;11.27;;;4.38;;
74626;SDS011;63132;52.268;5.192;2022-10-16T06:48:23;13.30;;;4.40;;
74626;SDS011;63132;52.268;5.192;2022-10-16T06:51:05;7.50;;;4.05;;
74626;SDS011;63132;52.268;5.192;2022-10-16T06:53:35;6.35;;;3.63;;
74626;SDS011;63132;52.268;5.192;2022-10-16T06:58:38;8.50;;;4.07;;
74626;SDS011;63132;52.268;5.192;2022-10-16T07:01:04;9.77;;;3.93;;
74626;SDS011;63132;52.268;5.192;2022-10-16T07:03:29;6.28;;;3.50;;
74626;SDS011;63132;52.268;5.192;2022-10-16T07:05:55;8.75;;;3.78;;
74626;SDS011;63132;52.268;5.192;2022-10-16T07:08:21;6.72;;;3.40;;
74626;SDS011;63132;52.268;5.192;2022-10-16T07:10:46;9.80;;;3.60;;
74626;SDS011;63132;52.268;5.192;2022-10-16T07:13:12;9.50;;;3.20;;
74626;SDS011;63132;52.268;5.192;2022-10-16T07:15:41;6.20;;;2.95;;
74626;SDS011;63132;52.268;5.192;2022-10-16T07:18:08;8.85;;;2.90;;
74626;SDS011;63132;52.268;5.192;2022-10-16T07:20:33;8.82;;;3.17;;
74626;SDS011;63132;52.268;5.192;2022-10-16T07:22:59;7.90;;;2.53;;
74626;SDS011;63132;52.268;5.192;2022-10-16T07:25:24;6.72;;;2.90;;
74626;SDS011;63132;52.268;5.192;2022-10-16T07:27:50;7.03;;;2.57;;
74626;SDS011;63132;52.268;5.192;2022-10-16T07:30:15;6.93;;;2.37;;
74626;SDS011;63132;52.268;5.192;2022-10-16T07:32:41;10.05;;;2.97;;
74626;SDS011;63132;52.268;5.192;2022-10-16T07:35:06;8.43;;;2.43;;
74626;SDS011;63132;52.268;5.192;2022-10-16T07:37:32;11.07;;;2.65;;
74626;SDS011;63132;52.268;5.192;2022-10-16T07:39:57;5.30;;;2.13;;
74626;SDS011;63132;52.268;5.192;2022-10-16T07:42:23;10.83;;;2.23;;
74626;SDS011;63132;52.268;5.192;2022-10-16T07:44:49;6.63;;;2.28;;
74626;SDS011;63132;52.268;5.192;2022-10-16T07:47:15;11.95;;;2.58;;
74626;SDS011;63132;52.268;5.192;2022-10-16T07:49:41;7.35;;;2.58;;
74626;SDS011;63132;52.268;5.192;2022-10-16T07:52:06;7.40;;;2.37;;
74626;SDS011;63132;52.268;5.192;2022-10-16T07:54:32;10.50;;;2.70;;
74626;SDS011;63132;52.268;5.192;2022-10-16T07:56:57;8.93;;;2.37;;
74626;SDS011;63132;52.268;5.192;2022-10-16T07:59:23;6.33;;;2.10;;
74626;SDS011;63132;52.268;5.192;2022-10-16T08:01:49;10.27;;;2.20;;
74626;SDS011;63132;52.268;5.192;2022-10-16T08:04:14;9.52;;;2.20;;
74626;SDS011;63132;52.268;5.192;2022-10-16T08:06:40;9.77;;;2.30;;
74626;SDS011;63132;52.268;5.192;2022-10-16T08:09:06;8.47;;;2.13;;
74626;SDS011;63132;52.268;5.192;2022-10-16T08:11:32;4.85;;;2.05;;
74626;SDS011;63132;52.268;5.192;2022-10-16T08:13:58;10.70;;;2.47;;
74626;SDS011;63132;52.268;5.192;2022-10-16T08:16:23;7.90;;;2.83;;
74626;SDS011;63132;52.268;5.192;2022-10-16T08:18:48;13.37;;;2.73;;
74626;SDS011;63132;52.268;5.192;2022-10-16T08:21:17;9.18;;;2.88;;
74626;SDS011;63132;52.268;5.192;2022-10-16T08:23:44;11.13;;;3.05;;
74626;SDS011;63132;52.268;5.192;2022-10-16T08:26:09;9.97;;;2.80;;
74626;SDS011;63132;52.268;5.192;2022-10-16T08:28:36;15.10;;;3.58;;
74626;SDS011;63132;52.268;5.192;2022-10-16T08:31:06;8.32;;;2.97;;
74626;SDS011;63132;52.268;5.192;2022-10-16T08:33:33;9.95;;;3.25;;
74626;SDS011;63132;52.268;5.192;2022-10-16T08:35:59;8.85;;;3.28;;
74626;SDS011;63132;52.268;5.192;2022-10-16T08:38:25;9.57;;;3.40;;
74626;SDS011;63132;52.268;5.192;2022-10-16T08:40:50;8.45;;;3.22;;
74626;SDS011;63132;52.268;5.192;2022-10-16T08:45:49;8.25;;;3.10;;
74626;SDS011;63132;52.268;5.192;2022-10-16T08:48:38;12.10;;;3.28;;
74626;SDS011;63132;52.268;5.192;2022-10-16T08:51:07;13.25;;;3.05;;
74626;SDS011;63132;52.268;5.192;2022-10-16T08:53:38;10.03;;;3.20;;
74626;SDS011;63132;52.268;5.192;2022-10-16T08:56:09;11.65;;;2.67;;
74626;SDS011;63132;52.268;5.192;2022-10-16T08:58:34;11.73;;;3.60;;
74626;SDS011;63132;52.268;5.192;2022-10-16T09:01:01;9.90;;;2.90;;
74626;SDS011;63132;52.268;5.192;2022-10-16T09:06:25;13.98;;;2.88;;
74626;SDS011;63132;52.268;5.192;2022-10-16T09:09:17;11.95;;;3.05;;
74626;SDS011;63132;52.268;5.192;2022-10-16T09:20:33;13.48;;;2.97;;
74626;SDS011;63132;52.268;5.192;2022-10-16T09:22:52;12.10;;;2.65;;
74626;SDS011;63132;52.268;5.192;2022-10-16T09:25:41;13.05;;;2.65;;
74626;SDS011;63132;52.268;5.192;2022-10-16T09:28:09;11.65;;;2.50;;
74626;SDS011;63132;52.268;5.192;2022-10-16T09:30:35;11.97;;;2.43;;
74626;SDS011;63132;52.268;5.192;2022-10-16T09:33:02;12.00;;;2.73;;
74626;SDS011;63132;52.268;5.192;2022-10-16T09:38:06;10.45;;;2.75;;
74626;SDS011;63132;52.268;5.192;2022-10-16T09:40:36;13.05;;;2.50;;
74626;SDS011;63132;52.268;5.192;2022-10-16T09:48:29;14.03;;;2.70;;
74626;SDS011;63132;52.268;5.192;2022-10-16T09:51:02;14.32;;;2.55;;
74626;SDS011;63132;52.268;5.192;2022-10-16T09:53:37;13.55;;;2.63;;
74626;SDS011;63132;52.268;5.192;2022-10-16T09:56:05;12.20;;;3.10;;
74626;SDS011;63132;52.268;5.192;2022-10-16T09:58:31;17.42;;;3.15;;
74626;SDS011;63132;52.268;5.192;2022-10-16T10:00:58;12.13;;;2.80;;
74626;SDS011;63132;52.268;5.192;2022-10-16T10:03:33;14.23;;;2.85;;
74626;SDS011;63132;52.268;5.192;2022-10-16T10:06:03;14.40;;;2.60;;
74626;SDS011;63132;52.268;5.192;2022-10-16T10:08:32;13.23;;;2.95;;
74626;SDS011;63132;52.268;5.192;2022-10-16T10:10:58;13.47;;;2.40;;
74626;SDS011;63132;52.268;5.192;2022-10-16T10:13:24;13.67;;;3.03;;
74626;SDS011;63132;52.268;5.192;2022-10-16T10:15:52;15.18;;;2.90;;
74626;SDS011;63132;52.268;5.192;2022-10-16T10:18:19;14.03;;;2.73;;
74626;SDS011;63132;52.268;5.192;2022-10-16T10:20:56;16.13;;;3.15;;
74626;SDS011;63132;52.268;5.192;2022-10-16T10:23:24;15.88;;;3.08;;
74626;SDS011;63132;52.268;5.192;2022-10-16T10:29:05;15.02;;;2.78;;
74626;SDS011;63132;52.268;5.192;2022-10-16T10:32:20;12.17;;;2.70;;
74626;SDS011;63132;52.268;5.192;2022-10-16T10:42:52;15.23;;;2.40;;
74626;SDS011;63132;52.268;5.192;2022-10-16T10:50:33;18.00;;;3.43;;
74626;SDS011;63132;52.268;5.192;2022-10-16T10:56:06;12.27;;;2.25;;
74626;SDS011;63132;52.268;5.192;2022-10-16T10:59:00;11.70;;;2.70;;
74626;SDS011;63132;52.268;5.192;2022-10-16T11:01:41;15.32;;;2.88;;
74626;SDS011;63132;52.268;5.192;2022-10-16T11:07:22;15.23;;;3.13;;
74626;SDS011;63132;52.268;5.192;2022-10-16T11:09:54;12.85;;;2.80;;
74626;SDS011;63132;52.268;5.192;2022-10-16T11:17:44;14.32;;;2.38;;
74626;SDS011;63132;52.268;5.192;2022-10-16T11:25:16;15.13;;;2.60;;
74626;SDS011;63132;52.268;5.192;2022-10-16T11:34:10;15.83;;;2.93;;
74626;SDS011;63132;52.268;5.192;2022-10-16T11:36:47;11.82;;;2.47;;
74626;SDS011;63132;52.268;5.192;2022-10-16T11:39:22;11.57;;;2.60;;
74626;SDS011;63132;52.268;5.192;2022-10-16T11:42:36;12.27;;;3.37;;
74626;SDS011;63132;52.268;5.192;2022-10-16T11:49:57;15.38;;;2.10;;
74626;SDS011;63132;52.268;5.192;2022-10-16T11:52:31;14.57;;;2.63;;
74626;SDS011;63132;52.268;5.192;2022-10-16T11:57:31;11.07;;;2.30;;
74626;SDS011;63132;52.268;5.192;2022-10-16T12:00:04;12.57;;;2.35;;
74626;SDS011;63132;52.268;5.192;2022-10-16T12:05:28;12.98;;;2.17;;
74626;SDS011;63132;52.268;5.192;2022-10-16T12:08:13;11.55;;;2.17;;
74626;SDS011;63132;52.268;5.192;2022-10-16T12:10:41;12.18;;;2.20;;
74626;SDS011;63132;52.268;5.192;2022-10-16T12:18:40;11.43;;;2.58;;
74626;SDS011;63132;52.268;5.192;2022-10-16T12:21:07;11.53;;;1.97;;
74626;SDS011;63132;52.268;5.192;2022-10-16T12:23:38;11.35;;;2.58;;
74626;SDS011;63132;52.268;5.192;2022-10-16T12:26:12;12.77;;;1.95;;
74626;SDS011;63132;52.268;5.192;2022-10-16T12:28:38;9.82;;;1.85;;
74626;SDS011;63132;52.268;5.192;2022-10-16T12:31:06;12.10;;;2.10;;
74626;SDS011;63132;52.268;5.192;2022-10-16T12:33:35;13.93;;;2.47;;
74626;SDS011;63132;52.268;5.192;2022-10-16T12:36:06;11.63;;;1.92;;
74626;SDS011;63132;52.268;5.192;2022-10-16T12:41:24;14.95;;;2.53;;
74626;SDS011;63132;52.268;5.192;2022-10-16T12:43:52;9.25;;;2.20;;
74626;SDS011;63132;52.268;5.192;2022-10-16T12:48:43;11.63;;;2.40;;
74626;SDS011;63132;52.268;5.192;2022-10-16T13:07:46;13.35;;;2.25;;
74626;SDS011;63132;52.268;5.192;2022-10-16T13:13:31;14.45;;;2.35;;
74626;SDS011;63132;52.268;5.192;2022-10-16T13:19:33;10.73;;;2.33;;
74626;SDS011;63132;52.268;5.192;2022-10-16T13:27:45;11.77;;;2.30;;
74626;SDS011;63132;52.268;5.192;2022-10-16T13:30:21;12.25;;;2.35;;
74626;SDS011;63132;52.268;5.192;2022-10-16T13:32:50;12.43;;;2.50;;
74626;SDS011;63132;52.268;5.192;2022-10-16T13:35:25;10.88;;;2.20;;
74626;SDS011;63132;52.268;5.192;2022-10-16T13:38:02;15.45;;;3.13;;
74626;SDS011;63132;52.268;5.192;2022-10-16T13:40:59;10.85;;;2.67;;
74626;SDS011;63132;52.268;5.192;2022-10-16T13:46:06;10.85;;;2.45;;
74626;SDS011;63132;52.268;5.192;2022-10-16T13:48:36;10.70;;;2.42;;
74626;SDS011;63132;52.268;5.192;2022-10-16T13:53:35;20.15;;;2.58;;
74626;SDS011;63132;52.268;5.192;2022-10-16T13:56:02;11.98;;;2.58;;
74626;SDS011;63132;52.268;5.192;2022-10-16T13:58:29;15.07;;;2.20;;
74626;SDS011;63132;52.268;5.192;2022-10-16T14:00:59;8.15;;;1.80;;
74626;SDS011;63132;52.268;5.192;2022-10-16T14:03:27;13.23;;;2.05;;
74626;SDS011;63132;52.268;5.192;2022-10-16T14:05:56;11.32;;;2.58;;
74626;SDS011;63132;52.268;5.192;2022-10-16T14:08:26;13.70;;;2.20;;
74626;SDS011;63132;52.268;5.192;2022-10-16T14:10:54;9.95;;;2.30;;
74626;SDS011;63132;52.268;5.192;2022-10-16T14:13:25;13.15;;;2.60;;
74626;SDS011;63132;52.268;5.192;2022-10-16T14:16:16;12.10;;;2.60;;
74626;SDS011;63132;52.268;5.192;2022-10-16T14:18:49;11.85;;;2.33;;
74626;SDS011;63132;52.268;5.192;2022-10-16T14:21:22;14.03;;;2.53;;
74626;SDS011;63132;52.268;5.192;2022-10-16T14:23:47;11.63;;;2.10;;
74626;SDS011;63132;52.268;5.192;2022-10-16T14:26:14;11.18;;;2.00;;
74626;SDS011;63132;52.268;5.192;2022-10-16T14:28:42;11.95;;;2.50;;
74626;SDS011;63132;52.268;5.192;2022-10-16T14:33:52;14.07;;;2.80;;
74626;SDS011;63132;52.268;5.192;2022-10-16T14:36:18;10.27;;;2.28;;
74626;SDS011;63132;52.268;5.192;2022-10-16T14:38:52;12.02;;;2.17;;
74626;SDS011;63132;52.268;5.192;2022-10-16T14:41:46;15.57;;;2.80;;
74626;SDS011;63132;52.268;5.192;2022-10-16T14:44:13;13.02;;;2.40;;
74626;SDS011;63132;52.268;5.192;2022-10-16T14:46:42;14.98;;;2.28;;
74626;SDS011;63132;52.268;5.192;2022-10-16T14:51:35;12.03;;;2.30;;
74626;SDS011;63132;52.268;5.192;2022-10-16T14:54:01;11.53;;;2.50;;
74626;SDS011;63132;52.268;5.192;2022-10-16T14:56:31;12.97;;;2.53;;
74626;SDS011;63132;52.268;5.192;2022-10-16T14:59:07;11.55;;;2.33;;
74626;SDS011;63132;52.268;5.192;2022-10-16T15:01:42;13.07;;;2.73;;
74626;SDS011;63132;52.268;5.192;2022-10-16T15:04:09;12.67;;;2.60;;
74626;SDS011;63132;52.268;5.192;2022-10-16T15:06:37;13.45;;;2.58;;
74626;SDS011;63132;52.268;5.192;2022-10-16T15:09:02;6.90;;;1.90;;
74626;SDS011;63132;52.268;5.192;2022-10-16T15:11:28;17.73;;;3.00;;
74626;SDS011;63132;52.268;5.192;2022-10-16T15:13:53;15.93;;;2.30;;
74626;SDS011;63132;52.268;5.192;2022-10-16T15:16:19;13.10;;;2.25;;
74626;SDS011;63132;52.268;5.192;2022-10-16T15:18:44;10.87;;;2.20;;
74626;SDS011;63132;52.268;5.192;2022-10-16T15:21:26;9.07;;;2.10;;
74626;SDS011;63132;52.268;5.192;2022-10-16T15:23:53;11.05;;;2.60;;
74626;SDS011;63132;52.268;5.192;2022-10-16T15:26:19;12.85;;;2.10;;
74626;SDS011;63132;52.268;5.192;2022-10-16T15:28:44;13.43;;;2.30;;
74626;SDS011;63132;52.268;5.192;2022-10-16T15:31:10;10.80;;;2.00;;
74626;SDS011;63132;52.268;5.192;2022-10-16T15:33:35;10.17;;;2.10;;
74626;SDS011;63132;52.268;5.192;2022-10-16T15:36:01;12.80;;;2.20;;
74626;SDS011;63132;52.268;5.192;2022-10-16T15:38:28;9.23;;;2.25;;
74626;SDS011;63132;52.268;5.192;2022-10-16T15:40:54;7.53;;;1.50;;
74626;SDS011;63132;52.268;5.192;2022-10-16T15:43:20;7.00;;;1.60;;
74626;SDS011;63132;52.268;5.192;2022-10-16T15:45:59;8.33;;;1.97;;
74626;SDS011;63132;52.268;5.192;2022-10-16T15:48:30;10.10;;;2.05;;
74626;SDS011;63132;52.268;5.192;2022-10-16T15:50:56;9.43;;;2.17;;
74626;SDS011;63132;52.268;5.192;2022-10-16T15:53:21;11.37;;;2.33;;
74626;SDS011;63132;52.268;5.192;2022-10-16T15:55:47;8.07;;;1.70;;
74626;SDS011;63132;52.268;5.192;2022-10-16T15:58:12;11.13;;;2.22;;
74626;SDS011;63132;52.268;5.192;2022-10-16T16:00:37;9.87;;;2.07;;
74626;SDS011;63132;52.268;5.192;2022-10-16T16:03:03;9.73;;;2.03;;
74626;SDS011;63132;52.268;5.192;2022-10-16T16:05:29;13.32;;;2.10;;
74626;SDS011;63132;52.268;5.192;2022-10-16T16:07:54;10.97;;;2.40;;
74626;SDS011;63132;52.268;5.192;2022-10-16T16:10:19;8.90;;;1.80;;
74626;SDS011;63132;52.268;5.192;2022-10-16T16:12:48;10.60;;;2.40;;
74626;SDS011;63132;52.268;5.192;2022-10-16T16:15:16;13.85;;;2.58;;
74626;SDS011;63132;52.268;5.192;2022-10-16T16:17:42;11.53;;;2.67;;
74626;SDS011;63132;52.268;5.192;2022-10-16T16:20:09;13.50;;;2.38;;
74626;SDS011;63132;52.268;5.192;2022-10-16T16:22:35;12.63;;;2.75;;
74626;SDS011;63132;52.268;5.192;2022-10-16T16:25:00;10.27;;;2.07;;
74626;SDS011;63132;52.268;5.192;2022-10-16T16:27:25;14.47;;;3.00;;
74626;SDS011;63132;52.268;5.192;2022-10-16T16:29:51;13.90;;;3.07;;
74626;SDS011;63132;52.268;5.192;2022-10-16T16:32:16;14.32;;;2.92;;
74626;SDS011;63132;52.268;5.192;2022-10-16T16:34:42;15.73;;;2.90;;
74626;SDS011;63132;52.268;5.192;2022-10-16T16:37:07;16.50;;;3.10;;
74626;SDS011;63132;52.268;5.192;2022-10-16T16:39:33;10.15;;;2.30;;
74626;SDS011;63132;52.268;5.192;2022-10-16T16:41:58;13.83;;;2.57;;
74626;SDS011;63132;52.268;5.192;2022-10-16T16:44:24;20.33;;;3.33;;
74626;SDS011;63132;52.268;5.192;2022-10-16T16:46:49;10.75;;;2.70;;
74626;SDS011;63132;52.268;5.192;2022-10-16T16:49:15;16.67;;;3.60;;
74626;SDS011;63132;52.268;5.192;2022-10-16T16:51:41;16.27;;;3.33;;
74626;SDS011;63132;52.268;5.192;2022-10-16T16:54:07;18.25;;;3.30;;
74626;SDS011;63132;52.268;5.192;2022-10-16T16:56:34;17.77;;;3.30;;
74626;SDS011;63132;52.268;5.192;2022-10-16T16:59:00;15.53;;;3.73;;
74626;SDS011;63132;52.268;5.192;2022-10-16T17:01:26;15.53;;;3.97;;
74626;SDS011;63132;52.268;5.192;2022-10-16T17:03:52;12.10;;;3.15;;
74626;SDS011;63132;52.268;5.192;2022-10-16T17:06:20;15.55;;;2.90;;
74626;SDS011;63132;52.268;5.192;2022-10-16T17:08:48;17.90;;;3.30;;
74626;SDS011;63132;52.268;5.192;2022-10-16T17:11:16;16.50;;;3.47;;
74626;SDS011;63132;52.268;5.192;2022-10-16T17:13:46;12.37;;;3.13;;
74626;SDS011;63132;52.268;5.192;2022-10-16T17:16:12;15.55;;;3.17;;